Time;durP1;ratioP1;P1;durP2;ratioP2;P2;SDS_P1;SDS_P2;PMS_P1;PMS_P2;Temp;Humidity;BMP_temperature;BMP_pressure;BME280_temperature;BME280_humidity;BME280_pressure;Samples;Min_cycle;Max_cycle;Signal;HPM_P1;HPM_P2
2023/12/03 00:01:07;;;;;;;8.47;5.97;;;0.60;99.90;;;;;;5050561;28;20201;-57
2023/12/03 00:03:35;;;;;;;8.27;6.20;;;0.50;99.90;;;;;;5050046;28;20229;-57
2023/12/03 00:06:02;;;;;;;8.10;6.10;;;0.40;99.90;;;;;;5050614;28;20205;-57
2023/12/03 00:08:29;;;;;;;6.10;5.37;;;0.20;99.90;;;;;;5053291;28;20221;-58
2023/12/03 00:10:56;;;;;;;7.60;6.03;;;0.30;99.90;;;;;;5054320;28;20205;-58
2023/12/03 00:13:22;;;;;;;6.67;5.70;;;0.50;99.90;;;;;;5054012;28;20212;-57
2023/12/03 00:15:49;;;;;;;6.47;5.53;;;0.70;99.90;;;;;;5053735;28;20271;-58
2023/12/03 00:18:15;;;;;;;7.97;5.80;;;0.90;99.90;;;;;;5053406;28;20229;-57
2023/12/03 00:20:44;;;;;;;8.37;6.47;;;1.20;99.90;;;;;;5053781;28;20259;-57
2023/12/03 00:23:11;;;;;;;7.00;5.77;;;1.20;99.90;;;;;;5053629;28;20283;-58
2023/12/03 00:25:38;;;;;;;7.53;6.17;;;1.50;99.90;;;;;;5053628;28;20271;-57
2023/12/03 00:28:05;;;;;;;7.90;5.97;;;1.60;99.90;;;;;;5053305;28;20275;-57
2023/12/03 00:30:31;;;;;;;7.67;6.17;;;1.70;99.90;;;;;;5053173;28;20671;-57
2023/12/03 00:32:58;;;;;;;8.70;6.97;;;1.70;99.90;;;;;;5053431;28;20594;-57
2023/12/03 00:35:24;;;;;;;9.10;6.60;;;1.80;99.90;;;;;;5053392;28;20667;-57
2023/12/03 00:37:53;;;;;;;7.10;5.87;;;1.80;99.90;;;;;;5053009;28;20721;-58
2023/12/03 00:40:19;;;;;;;7.20;5.93;;;1.70;99.90;;;;;;5053600;28;20689;-58
2023/12/03 00:42:46;;;;;;;6.77;6.03;;;1.70;99.90;;;;;;5053245;28;20209;-57
2023/12/03 00:45:13;;;;;;;7.70;6.20;;;1.70;99.90;;;;;;5053140;28;20614;-57
2023/12/03 00:47:39;;;;;;;8.07;6.70;;;1.60;99.90;;;;;;5053027;28;20229;-57
2023/12/03 00:50:07;;;;;;;8.67;6.37;;;1.30;99.90;;;;;;5053154;28;20213;-58
2023/12/03 00:52:34;;;;;;;7.40;6.10;;;1.20;99.90;;;;;;5053030;28;20209;-58
2023/12/03 00:55:02;;;;;;;8.57;6.30;;;1.10;99.90;;;;;;5053340;28;20205;-58
2023/12/03 00:57:30;;;;;;;8.20;6.23;;;1.10;99.90;;;;;;5052693;28;20206;-57
2023/12/03 00:59:57;;;;;;;8.83;6.83;;;1.20;99.90;;;;;;5052947;28;20205;-57
2023/12/03 01:02:23;;;;;;;8.27;6.40;;;1.30;99.90;;;;;;5053010;28;20204;-57
2023/12/03 01:04:50;;;;;;;8.77;6.47;;;1.40;99.90;;;;;;5052797;28;20222;-58
2023/12/03 01:07:17;;;;;;;7.93;6.20;;;1.50;99.90;;;;;;5052747;28;20209;-57
2023/12/03 01:09:43;;;;;;;7.70;5.83;;;1.60;99.90;;;;;;5052839;28;20234;-57
2023/12/03 01:12:11;;;;;;;7.83;6.17;;;1.70;99.90;;;;;;5052717;28;20556;-58
2023/12/03 01:14:38;;;;;;;9.03;6.43;;;1.70;99.90;;;;;;5052964;28;20210;-58
2023/12/03 01:17:05;;;;;;;8.83;6.60;;;1.70;99.90;;;;;;5052696;28;20205;-57
2023/12/03 01:19:31;;;;;;;8.00;6.37;;;1.70;99.90;;;;;;5052244;28;20230;-57
2023/12/03 01:21:58;;;;;;;8.07;6.80;;;1.80;99.90;;;;;;5052595;28;20202;-57
2023/12/03 01:24:25;;;;;;;8.50;6.57;;;1.80;99.90;;;;;;5052534;28;20219;-58
2023/12/03 01:26:51;;;;;;;8.30;6.23;;;1.90;99.90;;;;;;5052176;28;20205;-57
2023/12/03 01:29:19;;;;;;;9.20;6.87;;;1.90;99.90;;;;;;5052349;28;20613;-57
2023/12/03 01:31:46;;;;;;;7.73;6.10;;;1.90;99.90;;;;;;5052320;28;20477;-57
2023/12/03 01:34:13;;;;;;;7.87;6.53;;;2.00;99.90;;;;;;5052463;28;20226;-57
2023/12/03 01:36:40;;;;;;;7.70;6.10;;;1.90;99.90;;;;;;5052019;28;20262;-57
2023/12/03 01:39:07;;;;;;;8.10;6.20;;;1.80;99.90;;;;;;5052149;28;20222;-57
2023/12/03 01:41:34;;;;;;;6.53;5.60;;;1.90;99.90;;;;;;5051926;28;20202;-57
2023/12/03 01:44:00;;;;;;;8.30;5.90;;;2.00;99.90;;;;;;5052311;28;20213;-57
2023/12/03 01:46:29;;;;;;;8.30;6.20;;;2.00;99.90;;;;;;5052459;28;20229;-57
2023/12/03 01:48:56;;;;;;;7.63;6.00;;;2.10;99.90;;;;;;5052427;28;20659;-57
2023/12/03 01:51:23;;;;;;;7.87;6.40;;;2.00;99.90;;;;;;5051891;28;20671;-57
2023/12/03 01:53:50;;;;;;;9.00;6.60;;;2.00;99.90;;;;;;5051934;28;20380;-57
2023/12/03 01:56:17;;;;;;;8.77;6.70;;;2.00;99.90;;;;;;5051989;28;20209;-57
2023/12/03 01:58:43;;;;;;;7.60;6.40;;;2.00;99.90;;;;;;5051360;28;20615;-58
2023/12/03 02:01:10;;;;;;;8.13;6.50;;;2.00;99.90;;;;;;5051983;28;20201;-58
2023/12/03 02:03:38;;;;;;;8.07;6.73;;;1.90;99.90;;;;;;5051970;28;20546;-57
2023/12/03 02:06:06;;;;;;;8.53;6.57;;;1.90;99.90;;;;;;5051891;28;20491;-57
2023/12/03 02:08:33;;;;;;;8.97;6.90;;;1.90;99.90;;;;;;5051214;28;20286;-57
2023/12/03 02:11:00;;;;;;;8.60;7.10;;;1.90;99.90;;;;;;5051614;28;20206;-57
2023/12/03 02:13:29;;;;;;;11.50;6.53;;;2.00;99.90;;;;;;5051823;28;20210;-57
2023/12/03 02:15:56;;;;;;;9.90;6.87;;;2.10;99.90;;;;;;5043713;28;20251;-58
2023/12/03 02:18:24;;;;;;;10.37;6.83;;;2.10;99.90;;;;;;5051208;28;20229;-57
2023/12/03 02:20:52;;;;;;;9.83;7.17;;;2.20;99.90;;;;;;5051486;28;20414;-56
2023/12/03 02:23:21;;;;;;;10.23;7.50;;;2.20;99.90;;;;;;5051532;28;20197;-56
2023/12/03 02:25:50;;;;;;;10.07;7.77;;;2.20;99.90;;;;;;5051211;28;20641;-57
2023/12/03 02:28:18;;;;;;;8.77;7.30;;;2.20;99.90;;;;;;5051350;28;20718;-57
2023/12/03 02:30:45;;;;;;;9.53;7.30;;;2.20;99.90;;;;;;5050623;28;20292;-57
2023/12/03 02:33:12;;;;;;;10.07;7.83;;;2.20;99.90;;;;;;5051396;28;20209;-57
2023/12/03 02:35:39;;;;;;;11.63;7.50;;;2.20;99.90;;;;;;5051059;28;20631;-57
2023/12/03 02:38:05;;;;;;;10.00;7.50;;;2.20;99.90;;;;;;5051102;28;20819;-57
2023/12/03 02:40:35;;;;;;;9.97;7.27;;;2.20;99.90;;;;;;5051075;28;20280;-57
2023/12/03 02:43:02;;;;;;;10.23;7.47;;;2.20;99.90;;;;;;5051276;28;20667;-57
2023/12/03 02:45:29;;;;;;;8.67;6.93;;;2.20;99.90;;;;;;5051043;28;20218;-58
2023/12/03 02:47:55;;;;;;;10.60;7.73;;;2.20;99.90;;;;;;5050766;28;20237;-57
2023/12/03 02:50:22;;;;;;;9.57;7.70;;;2.20;99.90;;;;;;5051002;28;20201;-59
2023/12/03 02:52:49;;;;;;;9.57;7.30;;;2.30;99.90;;;;;;5050761;28;20217;-58
2023/12/03 02:55:15;;;;;;;11.03;8.47;;;2.30;99.90;;;;;;5051153;28;20202;-57
2023/12/03 02:57:43;;;;;;;9.33;7.47;;;2.30;99.90;;;;;;5050617;28;20776;-58
2023/12/03 03:00:11;;;;;;;9.90;7.77;;;2.30;99.90;;;;;;5050818;28;20657;-58
2023/12/03 03:02:38;;;;;;;9.87;7.60;;;2.30;99.90;;;;;;5050527;28;20581;-56
2023/12/03 03:05:05;;;;;;;10.23;7.67;;;2.30;99.90;;;;;;5050650;28;20636;-57
2023/12/03 03:07:32;;;;;;;9.50;7.57;;;2.20;99.90;;;;;;5050345;28;20292;-59
2023/12/03 03:09:59;;;;;;;8.37;7.07;;;2.10;99.90;;;;;;5050949;28;20205;-57
2023/12/03 03:12:25;;;;;;;10.03;7.47;;;2.00;99.90;;;;;;5050761;28;20201;-57
2023/12/03 03:14:53;;;;;;;8.43;7.20;;;2.10;99.90;;;;;;5050699;28;20497;-57
2023/12/03 03:17:20;;;;;;;9.60;7.70;;;2.00;99.90;;;;;;5050308;28;20201;-57
2023/12/03 03:19:47;;;;;;;9.73;7.67;;;2.10;99.90;;;;;;5050739;28;20209;-57
2023/12/03 03:22:14;;;;;;;8.67;7.03;;;2.20;99.90;;;;;;5050722;28;20214;-58
2023/12/03 03:24:41;;;;;;;10.73;7.97;;;2.10;99.90;;;;;;5050487;28;20225;-57
2023/12/03 03:27:08;;;;;;;12.17;8.20;;;2.00;99.90;;;;;;5050660;28;20236;-56
2023/12/03 03:29:36;;;;;;;10.97;8.23;;;2.00;99.90;;;;;;5050382;28;20232;-58
2023/12/03 03:32:04;;;;;;;9.90;8.07;;;2.10;99.90;;;;;;5050443;28;20663;-56
2023/12/03 03:34:31;;;;;;;9.90;7.70;;;2.10;99.90;;;;;;5050892;28;20289;-58
2023/12/03 03:36:58;;;;;;;10.10;7.63;;;2.10;99.90;;;;;;5042628;28;20201;-58
2023/12/03 03:39:24;;;;;;;11.07;8.37;;;2.10;99.90;;;;;;5050791;28;20233;-57
2023/12/03 03:41:51;;;;;;;9.97;7.30;;;2.20;99.90;;;;;;5052897;28;20259;-59
2023/12/03 03:44:17;;;;;;;9.57;7.67;;;2.20;99.90;;;;;;5054338;28;20205;-57
2023/12/03 03:46:44;;;;;;;9.70;7.60;;;2.20;99.90;;;;;;5054236;28;20580;-57
2023/12/03 03:49:12;;;;;;;10.20;7.60;;;2.10;99.90;;;;;;5054366;28;20233;-57
2023/12/03 03:51:39;;;;;;;9.90;7.93;;;2.10;99.90;;;;;;5054014;28;20710;-57
2023/12/03 03:54:06;;;;;;;8.20;6.90;;;2.10;99.90;;;;;;5054401;28;20210;-58
2023/12/03 03:56:32;;;;;;;8.70;7.00;;;2.10;99.90;;;;;;5054164;28;20199;-57
2023/12/03 03:58:59;;;;;;;8.70;6.77;;;2.10;99.90;;;;;;5046029;28;20248;-59
2023/12/03 04:01:26;;;;;;;8.17;7.20;;;2.10;99.90;;;;;;5054382;28;20288;-58
2023/12/03 04:03:52;;;;;;;9.63;7.63;;;2.10;99.90;;;;;;5054080;28;20210;-57
2023/12/03 04:06:20;;;;;;;8.97;7.33;;;2.10;99.90;;;;;;5054001;28;20217;-57
2023/12/03 04:08:48;;;;;;;9.90;6.87;;;2.10;99.90;;;;;;5053717;28;20355;-57
2023/12/03 04:11:15;;;;;;;9.43;7.43;;;2.10;99.90;;;;;;5054213;28;20220;-58
2023/12/03 04:13:41;;;;;;;8.80;7.17;;;2.00;99.90;;;;;;5053635;28;20228;-57
2023/12/03 04:16:09;;;;;;;8.47;6.83;;;2.00;99.90;;;;;;5054052;28;20206;-57
2023/12/03 04:18:38;;;;;;;10.37;7.13;;;1.90;99.90;;;;;;5077483;22;20230;-58
2023/12/03 04:21:05;;;;;;;8.23;6.77;;;1.80;99.90;;;;;;5049626;28;20747;-58
2023/12/03 04:23:33;;;;;;;8.70;7.00;;;1.80;99.90;;;;;;5042173;28;20696;-59
2023/12/03 04:26:00;;;;;;;7.80;6.00;;;1.80;99.90;;;;;;5045636;28;20267;-59
2023/12/03 04:28:26;;;;;;;9.43;7.23;;;1.70;99.90;;;;;;5045107;28;20229;-56
2023/12/03 04:30:53;;;;;;;8.20;6.87;;;1.60;99.90;;;;;;5042964;28;20206;-59
2023/12/03 04:33:19;;;;;;;7.37;6.00;;;1.60;99.90;;;;;;5042198;28;20202;-59
2023/12/03 04:35:46;;;;;;;7.20;6.03;;;1.50;99.90;;;;;;5043624;28;20198;-57
2023/12/03 04:38:13;;;;;;;8.30;6.50;;;1.50;99.90;;;;;;5045096;28;20226;-58
2023/12/03 04:40:41;;;;;;;6.77;6.07;;;1.40;99.90;;;;;;5044216;28;20444;-58
2023/12/03 04:43:08;;;;;;;7.80;6.23;;;1.40;99.90;;;;;;5041947;28;20324;-58
2023/12/03 04:45:34;;;;;;;7.30;5.90;;;1.40;99.90;;;;;;5041839;28;20222;-56
2023/12/03 04:48:01;;;;;;;8.30;6.63;;;1.30;99.90;;;;;;5044902;28;20205;-58
2023/12/03 04:50:27;;;;;;;6.97;6.07;;;1.30;99.90;;;;;;5045079;28;20272;-58
2023/12/03 04:52:53;;;;;;;7.50;6.37;;;1.40;99.90;;;;;;5041695;28;20670;-58
2023/12/03 04:55:20;;;;;;;6.63;5.53;;;1.40;99.90;;;;;;5041538;28;20241;-58
2023/12/03 04:57:48;;;;;;;8.13;6.17;;;1.40;99.90;;;;;;5043014;28;20206;-57
2023/12/03 05:00:15;;;;;;;7.63;6.00;;;1.40;99.90;;;;;;5045034;28;20255;-58
2023/12/03 05:02:43;;;;;;;8.17;6.17;;;1.40;99.90;;;;;;5043582;28;20738;-58
2023/12/03 05:05:10;;;;;;;6.93;5.90;;;1.40;99.90;;;;;;5041460;28;20214;-58
2023/12/03 05:07:36;;;;;;;7.73;5.93;;;1.30;99.90;;;;;;5041372;28;20206;-58
2023/12/03 05:10:04;;;;;;;10.27;6.03;;;1.30;99.90;;;;;;5045022;28;20225;-57
2023/12/03 05:12:30;;;;;;;7.73;5.63;;;1.30;99.90;;;;;;5044541;28;20202;-58
2023/12/03 05:14:59;;;;;;;6.40;5.63;;;1.40;99.90;;;;;;5042698;28;20209;-58
2023/12/03 05:17:25;;;;;;;6.60;5.90;;;1.40;99.90;;;;;;5042221;28;20671;-57
2023/12/03 05:19:52;;;;;;;6.93;6.00;;;1.30;99.90;;;;;;5044375;28;20656;-57
2023/12/03 05:22:19;;;;;;;6.60;5.47;;;1.40;99.90;;;;;;5044633;28;20210;-58
2023/12/03 05:24:45;;;;;;;10.77;6.47;;;1.40;99.90;;;;;;5043187;28;20210;-57
2023/12/03 05:27:12;;;;;;;6.70;5.23;;;1.40;99.90;;;;;;5040993;28;20206;-58
2023/12/03 05:29:43;;;;;;;8.17;6.00;;;1.30;99.90;;;;;;5041202;28;20222;-58
2023/12/03 05:32:11;;;;;;;7.07;5.30;;;1.40;99.90;;;;;;5044380;28;20233;-57
2023/12/03 05:34:37;;;;;;;6.40;5.60;;;1.40;99.90;;;;;;5043931;28;20201;-57
2023/12/03 05:37:04;;;;;;;8.10;5.70;;;1.30;99.90;;;;;;5040513;28;20206;-57
2023/12/03 05:39:31;;;;;;;7.70;6.07;;;1.20;99.90;;;;;;5040893;28;20317;-57
2023/12/03 05:41:58;;;;;;;8.07;5.50;;;1.30;99.90;;;;;;5043471;28;20202;-57
2023/12/03 05:44:24;;;;;;;7.77;6.13;;;1.30;99.90;;;;;;5044034;28;20201;-57
2023/12/03 05:46:51;;;;;;;6.57;5.33;;;1.40;99.90;;;;;;5041721;28;20240;-57
2023/12/03 05:49:19;;;;;;;7.17;5.67;;;1.40;99.90;;;;;;5040378;28;20233;-58
2023/12/03 05:51:46;;;;;;;8.33;6.50;;;1.40;99.90;;;;;;5041762;28;20264;-57
2023/12/03 05:54:12;;;;;;;8.83;6.40;;;1.40;99.90;;;;;;5044409;28;20201;-58
2023/12/03 05:56:39;;;;;;;8.87;6.50;;;1.40;99.90;;;;;;5043324;28;20205;-58
2023/12/03 05:59:06;;;;;;;7.87;6.10;;;1.30;99.90;;;;;;5040335;28;20232;-57
2023/12/03 06:01:33;;;;;;;9.33;7.30;;;1.30;99.90;;;;;;5040243;28;20288;-57
2023/12/03 06:04:00;;;;;;;8.27;6.80;;;1.20;99.90;;;;;;5042777;28;20202;-57
2023/12/03 06:06:28;;;;;;;7.67;6.37;;;1.20;99.90;;;;;;5043304;28;20222;-58
2023/12/03 06:08:55;;;;;;;24.40;15.40;;;1.10;99.90;;;;;;5041113;28;20228;-58
2023/12/03 06:11:21;;;;;;;8.67;7.07;;;1.00;99.90;;;;;;5040136;28;20203;-58
2023/12/03 06:13:48;;;;;;;10.30;7.30;;;0.90;99.90;;;;;;5041699;28;20217;-58
2023/12/03 06:16:15;;;;;;;9.00;6.60;;;0.80;99.90;;;;;;5043462;28;20209;-58
2023/12/03 06:18:43;;;;;;;8.07;6.37;;;0.70;99.90;;;;;;5042182;28;20255;-58
2023/12/03 06:21:10;;;;;;;8.93;6.67;;;0.50;99.90;;;;;;5039808;28;20211;-58
2023/12/03 06:23:38;;;;;;;9.37;6.50;;;0.40;99.90;;;;;;5039878;28;20203;-58
2023/12/03 06:26:05;;;;;;;10.73;7.47;;;0.30;99.90;;;;;;5039805;28;20214;-58
2023/12/03 06:28:32;;;;;;;9.13;7.47;;;0.20;99.90;;;;;;5039759;28;20226;-58
2023/12/03 06:30:58;;;;;;;10.13;6.90;;;0.10;99.90;;;;;;5042426;28;20205;-57
2023/12/03 06:33:25;;;;;;;8.23;6.97;;;0.00;99.90;;;;;;5043557;28;20655;-58
2023/12/03 06:35:53;;;;;;;7.80;6.60;;;-0.10;99.90;;;;;;5040995;28;20662;-58
2023/12/03 06:38:20;;;;;;;8.43;6.80;;;-0.20;99.90;;;;;;5039563;28;20555;-58
2023/12/03 06:40:48;;;;;;;10.10;6.87;;;-0.30;99.90;;;;;;5040790;28;20206;-58
2023/12/03 06:43:15;;;;;;;8.37;6.50;;;-0.50;99.90;;;;;;5042878;28;20197;-57
2023/12/03 06:45:42;;;;;;;9.10;6.90;;;-0.60;99.90;;;;;;5042140;28;20275;-58
2023/12/03 06:48:09;;;;;;;8.97;7.00;;;-0.70;99.90;;;;;;5039491;28;20229;-58
2023/12/03 06:50:35;;;;;;;10.43;7.97;;;-0.70;99.90;;;;;;5039671;28;20253;-57
2023/12/03 06:53:02;;;;;;;9.10;6.80;;;-0.80;99.90;;;;;;5042646;28;20206;-58
2023/12/03 06:55:29;;;;;;;9.53;6.87;;;-0.90;99.90;;;;;;5042946;28;20259;-58
2023/12/03 06:57:57;;;;;;;8.43;6.33;;;-0.90;99.90;;;;;;5040016;28;20309;-57
2023/12/03 07:00:24;;;;;;;9.33;6.87;;;-0.90;99.90;;;;;;5039531;28;20280;-57
2023/12/03 07:02:50;;;;;;;11.47;7.90;;;-1.00;99.90;;;;;;5041156;28;20238;-58
2023/12/03 07:05:17;;;;;;;9.53;6.80;;;-1.00;99.90;;;;;;5042758;28;20208;-58
2023/12/03 07:07:48;;;;;;;10.27;7.20;;;-1.00;99.90;;;;;;5041732;28;20241;-58
2023/12/03 07:10:15;;;;;;;9.17;7.17;;;-1.00;99.90;;;;;;5039680;28;20292;-57
2023/12/03 07:12:41;;;;;;;8.30;6.67;;;-1.00;99.90;;;;;;5039828;28;20206;-58
2023/12/03 07:15:10;;;;;;;9.17;7.43;;;-1.00;99.90;;;;;;5042831;28;20576;-57
2023/12/03 07:17:37;;;;;;;10.10;7.33;;;-1.00;99.90;;;;;;5046079;28;20631;-57
2023/12/03 07:20:05;;;;;;;11.80;7.10;;;-1.00;99.90;;;;;;5046603;28;20271;-58
2023/12/03 07:22:32;;;;;;;9.30;7.43;;;-1.00;99.90;;;;;;5046544;28;20201;-57
2023/12/03 07:24:59;;;;;;;9.17;6.70;;;-1.00;99.90;;;;;;5043859;28;20311;-58
2023/12/03 07:27:25;;;;;;;9.50;7.17;;;-1.00;99.90;;;;;;5043163;28;20267;-57
2023/12/03 07:29:55;;;;;;;10.47;7.33;;;-0.90;99.90;;;;;;5044923;28;20696;-58
2023/12/03 07:32:24;;;;;;;9.03;7.20;;;-0.90;99.90;;;;;;5046875;28;20255;-58
2023/12/03 07:34:51;;;;;;;9.23;7.30;;;-0.90;99.90;;;;;;5044862;28;20260;-58
2023/12/03 07:37:18;;;;;;;8.83;6.80;;;-0.90;99.90;;;;;;5042763;28;20229;-57
2023/12/03 07:39:45;;;;;;;12.27;7.20;;;-1.00;99.90;;;;;;5043512;28;20230;-58
2023/12/03 07:42:11;;;;;;;8.97;7.13;;;-1.00;99.90;;;;;;5046464;28;20214;-58
2023/12/03 07:44:38;;;;;;;9.83;7.20;;;-1.00;99.90;;;;;;5046521;28;20201;-58
2023/12/03 07:47:05;;;;;;;9.80;6.83;;;-1.00;99.90;;;;;;5042674;28;20727;-59
2023/12/03 07:49:33;;;;;;;10.47;7.13;;;-1.10;99.90;;;;;;5042897;28;20258;-59
2023/12/03 07:52:00;;;;;;;9.67;7.47;;;-1.00;99.90;;;;;;5045308;28;20214;-58
2023/12/03 07:54:26;;;;;;;10.63;7.40;;;-1.10;99.90;;;;;;5045867;28;20202;-58
2023/12/03 07:56:53;;;;;;;9.90;7.30;;;-1.00;99.90;;;;;;5043909;28;20715;-58
2023/12/03 07:59:20;;;;;;;11.40;7.93;;;-0.90;99.90;;;;;;5042720;28;20290;-58
2023/12/03 08:01:47;;;;;;;10.97;8.30;;;-0.90;99.90;;;;;;5043322;28;20260;-57
2023/12/03 08:04:14;;;;;;;11.77;8.17;;;-1.00;99.90;;;;;;5046241;28;20213;-58
2023/12/03 08:06:42;;;;;;;11.13;7.90;;;-1.00;99.90;;;;;;5045684;28;20197;-57
2023/12/03 08:09:08;;;;;;;9.87;7.83;;;-1.00;99.90;;;;;;5042467;28;20280;-58
2023/12/03 08:11:35;;;;;;;10.90;8.07;;;-1.00;99.90;;;;;;5042469;28;20642;-58
2023/12/03 08:14:02;;;;;;;12.13;7.73;;;-1.00;99.90;;;;;;5045227;28;20598;-57
2023/12/03 08:16:29;;;;;;;10.17;8.17;;;-0.90;99.90;;;;;;5045662;28;20276;-58
2023/12/03 08:18:56;;;;;;;11.20;8.30;;;-0.70;99.90;;;;;;5043401;28;20229;-58
2023/12/03 08:21:22;;;;;;;12.33;8.00;;;-0.60;99.90;;;;;;5042002;28;20211;-58
2023/12/03 08:23:51;;;;;;;10.97;8.03;;;-0.50;99.90;;;;;;5043127;28;20207;-59
2023/12/03 08:26:18;;;;;;;9.87;7.20;;;-0.40;99.90;;;;;;5045532;28;20267;-59
2023/12/03 08:28:44;;;;;;;9.77;7.30;;;-0.30;99.90;;;;;;5043595;28;20306;-58
2023/12/03 08:31:11;;;;;;;11.50;8.10;;;-0.10;99.90;;;;;;5042014;28;20211;-59
2023/12/03 08:33:38;;;;;;;11.40;7.07;;;0.00;99.90;;;;;;5042013;28;20210;-59
2023/12/03 08:36:05;;;;;;;9.87;7.23;;;0.00;99.90;;;;;;5044780;28;20299;-59
2023/12/03 08:38:31;;;;;;;9.60;7.03;;;0.10;99.90;;;;;;5045254;28;20217;-59
2023/12/03 08:41:00;;;;;;;9.97;7.47;;;0.10;99.90;;;;;;5042763;28;20679;-58
2023/12/03 08:43:26;;;;;;;8.67;6.47;;;0.20;99.90;;;;;;5041841;28;20198;-59
2023/12/03 08:45:53;;;;;;;8.67;6.57;;;0.30;99.90;;;;;;5043171;28;20660;-59
2023/12/03 08:48:20;;;;;;;7.60;6.23;;;0.20;99.90;;;;;;5044931;28;20229;-59
2023/12/03 08:50:46;;;;;;;10.50;7.37;;;0.30;99.90;;;;;;5044134;28;20607;-59
2023/12/03 08:53:13;;;;;;;8.73;6.93;;;0.40;99.90;;;;;;5041444;28;20672;-58
2023/12/03 08:55:40;;;;;;;7.80;6.73;;;0.50;99.90;;;;;;5041504;28;20254;-59
2023/12/03 08:58:08;;;;;;;10.20;6.83;;;0.60;99.90;;;;;;5044689;28;20217;-59
2023/12/03 09:00:35;;;;;;;9.00;7.00;;;0.70;99.90;;;;;;5044719;28;20560;-59
2023/12/03 09:03:01;;;;;;;9.27;7.03;;;0.80;99.90;;;;;;5041860;28;20232;-58
2023/12/03 09:05:28;;;;;;;8.77;7.07;;;0.80;99.90;;;;;;5041299;28;20216;-59
2023/12/03 09:07:55;;;;;;;8.90;6.73;;;0.90;99.90;;;;;;5042689;28;20210;-61
2023/12/03 09:10:22;;;;;;;8.53;6.67;;;0.90;99.90;;;;;;5044436;28;20205;-58
2023/12/03 09:12:48;;;;;;;9.57;6.70;;;1.00;99.90;;;;;;5043623;28;20309;-59
2023/12/03 09:15:17;;;;;;;9.17;6.67;;;1.10;99.90;;;;;;5041051;28;20234;-59
2023/12/03 09:17:43;;;;;;;10.77;6.77;;;1.20;99.90;;;;;;5041142;28;20237;-59
2023/12/03 09:20:10;;;;;;;9.97;7.57;;;1.10;99.90;;;;;;5044236;28;20711;-59
2023/12/03 09:22:37;;;;;;;9.33;7.40;;;1.20;99.90;;;;;;5044389;28;20210;-59
2023/12/03 09:25:05;;;;;;;10.17;7.07;;;1.30;99.90;;;;;;5041418;28;20289;-59
2023/12/03 09:27:33;;;;;;;8.73;6.50;;;1.30;99.90;;;;;;5040691;28;20238;-58
2023/12/03 09:29:59;;;;;;;8.67;7.00;;;1.40;99.90;;;;;;5042964;28;20284;-59
2023/12/03 09:32:28;;;;;;;9.97;7.23;;;1.50;99.90;;;;;;5043989;28;20305;-58
2023/12/03 09:34:54;;;;;;;10.53;8.00;;;1.60;99.90;;;;;;5042661;28;20201;-58
2023/12/03 09:37:21;;;;;;;8.83;7.17;;;1.70;99.90;;;;;;5040616;28;20218;-58
2023/12/03 09:39:48;;;;;;;10.80;7.23;;;1.60;99.90;;;;;;5040996;28;20275;-59
2023/12/03 09:42:19;;;;;;;9.13;6.73;;;1.60;99.90;;;;;;5043919;28;20691;-58
2023/12/03 09:44:51;;;;;;;10.20;7.53;;;1.70;99.90;;;;;;5043481;28;20300;-58
2023/12/03 09:47:23;;;;;;;11.27;7.63;;;1.80;99.90;;;;;;5040669;28;20206;-59
2023/12/03 09:49:55;;;;;;;12.33;8.27;;;1.90;99.90;;;;;;5041240;28;20313;-58
2023/12/03 09:52:24;;;;;;;10.73;8.03;;;1.90;99.90;;;;;;5043875;28;20232;-58
2023/12/03 09:54:52;;;;;;;10.30;7.80;;;2.00;99.90;;;;;;5042733;28;20206;-57
2023/12/03 09:57:20;;;;;;;9.90;8.00;;;2.00;99.90;;;;;;5042504;28;20283;-65
2023/12/03 09:59:48;;;;;;;9.90;7.63;;;2.10;99.90;;;;;;5043574;28;20630;-64
2023/12/03 10:02:16;;;;;;;9.03;7.00;;;2.10;99.90;;;;;;5043725;28;20209;-64
2023/12/03 10:04:43;;;;;;;9.43;6.93;;;2.20;99.90;;;;;;5043553;28;20674;-65
2023/12/03 10:07:13;;;;;;;9.43;7.23;;;2.20;99.90;;;;;;5043378;28;20209;-66
2023/12/03 10:09:42;;;;;;;9.77;7.30;;;2.10;99.90;;;;;;5043000;28;20221;-64
2023/12/03 10:12:14;;;;;;;22.00;16.33;;;2.10;99.90;;;;;;5035329;28;20235;-63
2023/12/03 10:14:42;;;;;;;11.30;8.27;;;2.20;99.90;;;;;;5043577;28;20213;-64
2023/12/03 10:17:08;;;;;;;9.97;7.17;;;2.30;99.90;;;;;;5039756;28;20222;-62
2023/12/03 10:19:35;;;;;;;12.67;10.03;;;2.30;99.90;;;;;;5069919;22;20229;-62
2023/12/03 10:22:02;;;;;;;12.50;9.23;;;2.40;99.90;;;;;;5043028;28;20213;-60
2023/12/03 10:24:30;;;;;;;8.97;6.93;;;2.50;99.90;;;;;;5043016;28;20670;-61
2023/12/03 10:26:59;;;;;;;9.27;7.37;;;2.60;99.90;;;;;;5041474;28;20267;-61
2023/12/03 10:29:26;;;;;;;9.03;7.00;;;2.70;99.90;;;;;;5039491;28;20225;-61
2023/12/03 10:31:56;;;;;;;9.20;7.33;;;2.70;99.90;;;;;;5040640;28;20210;-61
2023/12/03 10:34:24;;;;;;;11.60;7.60;;;2.70;99.90;;;;;;5042840;28;20272;-60
2023/12/03 10:36:51;;;;;;;8.17;6.73;;;2.70;99.90;;;;;;5041947;28;20316;-60
2023/12/03 10:39:18;;;;;;;11.23;7.60;;;2.80;99.90;;;;;;5039760;28;20393;-60
2023/12/03 10:41:49;;;;;;;10.50;7.67;;;2.90;99.90;;;;;;5039701;28;20210;-63
2023/12/03 10:44:17;;;;;;;10.60;8.00;;;2.80;99.90;;;;;;5043773;28;20210;-61
2023/12/03 10:46:44;;;;;;;14.37;8.40;;;2.90;99.90;;;;;;5042499;28;20201;-61
2023/12/03 10:49:12;;;;;;;10.13;7.27;;;2.90;99.90;;;;;;5042879;28;20311;-61
2023/12/03 10:51:41;;;;;;;9.30;8.03;;;3.00;99.90;;;;;;5042156;28;20206;-61
2023/12/03 10:54:08;;;;;;;10.07;8.17;;;3.10;99.90;;;;;;5039802;28;20694;-61
2023/12/03 10:56:35;;;;;;;10.07;7.90;;;3.20;99.90;;;;;;5039370;28;20229;-61
2023/12/03 10:59:09;;;;;;;10.33;7.13;;;3.30;99.90;;;;;;5041408;28;20226;-61
2023/12/03 11:01:39;;;;;;;10.07;8.10;;;3.40;99.90;;;;;;5042823;28;20288;-62
2023/12/03 11:04:15;;;;;;;25.93;14.17;;;3.40;99.90;;;;;;5039953;28;20270;-61
2023/12/03 11:06:44;;;;;;;33.13;16.97;;;3.50;99.90;;;;;;5039210;28;20238;-61
2023/12/03 11:09:11;;;;;;;11.87;8.13;;;3.60;99.90;;;;;;5047124;28;20229;-61
2023/12/03 11:11:39;;;;;;;9.57;7.77;;;3.50;99.90;;;;;;5039223;28;20695;-60
2023/12/03 11:14:08;;;;;;;10.00;7.70;;;3.60;99.90;;;;;;5041999;28;20293;-60
2023/12/03 11:16:45;;;;;;;9.30;7.43;;;3.60;99.90;;;;;;5042724;28;20201;-60
2023/12/03 11:19:17;;;;;;;9.37;7.40;;;3.70;99.90;;;;;;5039100;28;20229;-61
2023/12/03 11:21:53;;;;;;;8.90;7.30;;;3.70;99.90;;;;;;5039515;28;20206;-59
2023/12/03 11:24:36;;;;;;;10.47;7.47;;;3.80;99.90;;;;;;5043621;28;20259;-59
2023/12/03 11:27:04;;;;;;;9.40;6.83;;;3.80;99.90;;;;;;5039720;28;20255;-60
2023/12/03 11:29:51;;;;;;;9.43;7.57;;;3.80;99.90;;;;;;5038912;28;20222;-59
2023/12/03 11:32:19;;;;;;;10.67;7.50;;;3.90;99.90;;;;;;5043327;28;20289;-60
2023/12/03 11:34:56;;;;;;;9.40;7.37;;;4.00;99.90;;;;;;5042315;28;20593;-61
2023/12/03 11:37:25;;;;;;;11.30;7.50;;;3.90;99.90;;;;;;5043725;28;20699;-60
2023/12/03 11:39:51;;;;;;;9.40;7.03;;;3.90;99.90;;;;;;5041836;28;20648;-60
2023/12/03 11:42:19;;;;;;;10.47;7.27;;;4.00;99.90;;;;;;5039045;28;20627;-59
2023/12/03 11:44:46;;;;;;;8.77;6.93;;;4.10;99.90;;;;;;5039384;28;20213;-60
2023/12/03 11:47:15;;;;;;;31.13;23.13;;;4.00;99.90;;;;;;5042137;28;20268;-60
2023/12/03 11:49:42;;;;;;;10.23;7.30;;;4.00;99.90;;;;;;5042012;28;20272;-60
2023/12/03 11:52:09;;;;;;;9.70;7.50;;;4.00;99.90;;;;;;5039082;28;20706;-60
2023/12/03 11:54:48;;;;;;;11.00;7.77;;;3.60;99.90;;;;;;5039038;28;20672;-59
2023/12/03 11:57:15;;;;;;;8.97;7.03;;;3.60;99.90;;;;;;5042714;28;20217;-60
2023/12/03 11:59:43;;;;;;;10.07;7.10;;;3.70;99.90;;;;;;5041834;28;20221;-60
2023/12/03 12:02:10;;;;;;;9.47;7.40;;;3.70;99.90;;;;;;5038903;28;20209;-60
2023/12/03 12:04:38;;;;;;;9.20;7.07;;;3.70;99.90;;;;;;5042094;28;20213;-62
2023/12/03 12:07:16;;;;;;;10.33;8.10;;;3.70;99.90;;;;;;5045057;28;20604;-64
2023/12/03 12:09:43;;;;;;;10.60;6.83;;;3.90;99.90;;;;;;5045578;28;20225;-63
2023/12/03 12:12:10;;;;;;;8.80;6.70;;;4.00;99.90;;;;;;5043381;28;20675;-63
2023/12/03 12:14:37;;;;;;;10.43;6.80;;;4.10;99.90;;;;;;5042647;28;20210;-62
2023/12/03 12:17:04;;;;;;;9.20;7.20;;;4.10;99.90;;;;;;5044150;28;20202;-65
2023/12/03 12:19:30;;;;;;;9.57;7.10;;;4.20;99.90;;;;;;5045487;28;20694;-61
2023/12/03 12:21:58;;;;;;;9.43;6.60;;;4.30;99.90;;;;;;5044207;28;20209;-61
2023/12/03 12:24:25;;;;;;;9.27;7.27;;;4.40;99.90;;;;;;5041913;28;20691;-65
2023/12/03 12:26:54;;;;;;;9.93;7.43;;;4.40;99.90;;;;;;5042376;28;20688;-63
2023/12/03 12:29:22;;;;;;;8.40;7.07;;;4.50;99.90;;;;;;5045624;28;20225;-67
2023/12/03 12:31:49;;;;;;;9.17;7.47;;;4.50;99.90;;;;;;5045493;28;20209;-65
2023/12/03 12:34:16;;;;;;;8.20;6.80;;;4.60;99.90;;;;;;5042043;28;20202;-64
2023/12/03 12:36:44;;;;;;;8.40;7.10;;;4.70;99.90;;;;;;5041602;28;20214;-64
2023/12/03 12:39:26;;;;;;;8.00;6.77;;;4.70;99.90;;;;;;5044844;28;20275;-66
2023/12/03 12:41:52;;;;;;;8.50;6.43;;;4.70;99.90;;;;;;5045159;28;20656;-64
2023/12/03 12:44:19;;;;;;;8.33;6.70;;;4.70;99.90;;;;;;5041845;28;20202;-65
2023/12/03 12:46:53;;;;;;;12.67;7.40;;;4.70;99.90;;;;;;5041852;28;20308;-65
2023/12/03 12:49:20;;;;;;;8.60;6.13;;;4.70;99.90;;;;;;5045755;28;20221;-64
2023/12/03 12:51:47;;;;;;;8.80;6.53;;;4.70;99.90;;;;;;5045352;28;20201;-64
2023/12/03 12:54:14;;;;;;;9.57;6.80;;;4.60;99.90;;;;;;5041768;28;20204;-64